sensor_id;sensor_type;location;lat;lon;timestamp;temperature;humidity
12901;DHT22;6518;50.930;5.344;2022-09-23T00:01:59;13.70;70.30
12901;DHT22;6518;50.930;5.344;2022-09-23T00:04:26;13.70;70.60
12901;DHT22;6518;50.930;5.344;2022-09-23T00:06:53;13.70;70.60
12901;DHT22;6518;50.930;5.344;2022-09-23T00:09:20;13.70;70.50
12901;DHT22;6518;50.930;5.344;2022-09-23T00:11:49;13.60;70.50
12901;DHT22;6518;50.930;5.344;2022-09-23T00:14:15;13.70;70.60
12901;DHT22;6518;50.930;5.344;2022-09-23T00:16:43;13.60;70.50
12901;DHT22;6518;50.930;5.344;2022-09-23T00:19:11;13.60;70.50
12901;DHT22;6518;50.930;5.344;2022-09-23T00:21:38;13.60;70.50
12901;DHT22;6518;50.930;5.344;2022-09-23T00:24:05;13.60;70.50
12901;DHT22;6518;50.930;5.344;2022-09-23T00:26:32;13.60;71.50
12901;DHT22;6518;50.930;5.344;2022-09-23T00:28:59;13.50;70.70
12901;DHT22;6518;50.930;5.344;2022-09-23T00:31:26;13.50;70.80
12901;DHT22;6518;50.930;5.344;2022-09-23T00:33:54;13.50;70.80
12901;DHT22;6518;50.930;5.344;2022-09-23T00:36:23;13.50;70.80
12901;DHT22;6518;50.930;5.344;2022-09-23T00:38:50;13.40;70.80
12901;DHT22;6518;50.930;5.344;2022-09-23T00:41:17;13.40;70.90
12901;DHT22;6518;50.930;5.344;2022-09-23T00:43:46;13.40;70.90
12901;DHT22;6518;50.930;5.344;2022-09-23T00:46:15;13.40;70.90
12901;DHT22;6518;50.930;5.344;2022-09-23T00:48:44;13.40;70.90
12901;DHT22;6518;50.930;5.344;2022-09-23T00:51:14;13.40;70.90
12901;DHT22;6518;50.930;5.344;2022-09-23T00:53:45;13.30;70.90
12901;DHT22;6518;50.930;5.344;2022-09-23T00:56:13;13.40;71.00
12901;DHT22;6518;50.930;5.344;2022-09-23T00:58:42;13.30;71.00
12901;DHT22;6518;50.930;5.344;2022-09-23T01:01:12;13.30;71.10
12901;DHT22;6518;50.930;5.344;2022-09-23T01:03:40;13.30;71.30
12901;DHT22;6518;50.930;5.344;2022-09-23T01:06:09;13.20;71.30
12901;DHT22;6518;50.930;5.344;2022-09-23T01:08:36;13.20;71.40
12901;DHT22;6518;50.930;5.344;2022-09-23T01:11:13;13.20;71.40
12901;DHT22;6518;50.930;5.344;2022-09-23T01:13:51;13.20;71.50
12901;DHT22;6518;50.930;5.344;2022-09-23T01:16:27;13.20;71.40
12901;DHT22;6518;50.930;5.344;2022-09-23T01:19:03;13.20;71.40
12901;DHT22;6518;50.930;5.344;2022-09-23T01:21:43;13.20;71.40
12901;DHT22;6518;50.930;5.344;2022-09-23T01:24:38;13.10;71.30
12901;DHT22;6518;50.930;5.344;2022-09-23T01:27:21;13.10;71.50
12901;DHT22;6518;50.930;5.344;2022-09-23T01:33:04;13.00;71.60
12901;DHT22;6518;50.930;5.344;2022-09-23T01:35:42;13.00;71.60
12901;DHT22;6518;50.930;5.344;2022-09-23T01:38:19;12.90;71.50
12901;DHT22;6518;50.930;5.344;2022-09-23T01:40:51;12.90;71.50
12901;DHT22;6518;50.930;5.344;2022-09-23T01:43:29;12.90;71.70
12901;DHT22;6518;50.930;5.344;2022-09-23T01:45:58;12.90;71.80
12901;DHT22;6518;50.930;5.344;2022-09-23T01:48:31;12.80;71.80
12901;DHT22;6518;50.930;5.344;2022-09-23T01:51:03;12.80;72.00
12901;DHT22;6518;50.930;5.344;2022-09-23T01:53:37;12.80;72.10
12901;DHT22;6518;50.930;5.344;2022-09-23T01:56:09;12.80;71.80
12901;DHT22;6518;50.930;5.344;2022-09-23T01:58:41;12.80;71.60
12901;DHT22;6518;50.930;5.344;2022-09-23T02:01:13;12.70;71.50
12901;DHT22;6518;50.930;5.344;2022-09-23T02:03:44;12.70;71.70
12901;DHT22;6518;50.930;5.344;2022-09-23T02:06:16;12.70;72.80
12901;DHT22;6518;50.930;5.344;2022-09-23T02:08:50;12.70;72.00
12901;DHT22;6518;50.930;5.344;2022-09-23T02:11:19;12.70;72.30
12901;DHT22;6518;50.930;5.344;2022-09-23T02:13:50;12.70;72.30
12901;DHT22;6518;50.930;5.344;2022-09-23T02:16:25;12.70;72.40
12901;DHT22;6518;50.930;5.344;2022-09-23T02:18:57;12.70;72.50
12901;DHT22;6518;50.930;5.344;2022-09-23T02:21:28;12.70;72.50
12901;DHT22;6518;50.930;5.344;2022-09-23T02:24:03;12.70;72.30
12901;DHT22;6518;50.930;5.344;2022-09-23T02:26:35;12.70;72.30
12901;DHT22;6518;50.930;5.344;2022-09-23T02:29:10;12.70;72.30
12901;DHT22;6518;50.930;5.344;2022-09-23T02:31:42;12.60;72.30
12901;DHT22;6518;50.930;5.344;2022-09-23T02:34:18;12.60;72.20
12901;DHT22;6518;50.930;5.344;2022-09-23T02:36:52;12.60;72.30
12901;DHT22;6518;50.930;5.344;2022-09-23T02:39:22;12.60;72.40
12901;DHT22;6518;50.930;5.344;2022-09-23T02:41:57;12.60;72.50
12901;DHT22;6518;50.930;5.344;2022-09-23T02:44:27;12.50;72.60
12901;DHT22;6518;50.930;5.344;2022-09-23T02:46:54;12.50;72.60
12901;DHT22;6518;50.930;5.344;2022-09-23T02:49:25;12.50;72.70
12901;DHT22;6518;50.930;5.344;2022-09-23T02:51:52;12.40;72.80
12901;DHT22;6518;50.930;5.344;2022-09-23T02:54:22;12.40;72.80
12901;DHT22;6518;50.930;5.344;2022-09-23T02:56:50;12.40;72.90
12901;DHT22;6518;50.930;5.344;2022-09-23T02:59:19;12.40;73.00
12901;DHT22;6518;50.930;5.344;2022-09-23T03:01:58;12.40;73.10
12901;DHT22;6518;50.930;5.344;2022-09-23T03:04:34;12.40;73.20
12901;DHT22;6518;50.930;5.344;2022-09-23T03:07:11;12.40;73.20
12901;DHT22;6518;50.930;5.344;2022-09-23T03:09:46;12.40;73.20
12901;DHT22;6518;50.930;5.344;2022-09-23T03:12:23;12.40;73.20
12901;DHT22;6518;50.930;5.344;2022-09-23T03:15:07;12.40;73.20
12901;DHT22;6518;50.930;5.344;2022-09-23T03:17:42;12.40;73.10
12901;DHT22;6518;50.930;5.344;2022-09-23T03:20:21;12.30;73.20
12901;DHT22;6518;50.930;5.344;2022-09-23T03:22:53;12.30;73.20
12901;DHT22;6518;50.930;5.344;2022-09-23T03:25:23;12.30;73.30
12901;DHT22;6518;50.930;5.344;2022-09-23T03:27:54;12.30;73.30
12901;DHT22;6518;50.930;5.344;2022-09-23T03:30:22;12.30;73.40
12901;DHT22;6518;50.930;5.344;2022-09-23T03:32:50;12.30;73.60
12901;DHT22;6518;50.930;5.344;2022-09-23T03:35:22;12.30;73.60
12901;DHT22;6518;50.930;5.344;2022-09-23T03:37:54;12.30;73.70
12901;DHT22;6518;50.930;5.344;2022-09-23T03:40:25;12.30;73.50
12901;DHT22;6518;50.930;5.344;2022-09-23T03:42:54;12.20;73.50
12901;DHT22;6518;50.930;5.344;2022-09-23T03:45:25;12.20;73.50
12901;DHT22;6518;50.930;5.344;2022-09-23T03:47:53;12.20;73.60
12901;DHT22;6518;50.930;5.344;2022-09-23T03:50:21;12.20;73.80
12901;DHT22;6518;50.930;5.344;2022-09-23T03:52:48;12.20;73.80
12901;DHT22;6518;50.930;5.344;2022-09-23T03:55:15;12.20;73.80
12901;DHT22;6518;50.930;5.344;2022-09-23T03:57:43;12.20;73.90
12901;DHT22;6518;50.930;5.344;2022-09-23T04:00:15;12.20;73.80
12901;DHT22;6518;50.930;5.344;2022-09-23T04:02:42;12.30;74.00
12901;DHT22;6518;50.930;5.344;2022-09-23T04:05:11;12.30;73.90
12901;DHT22;6518;50.930;5.344;2022-09-23T04:07:39;12.30;73.90
12901;DHT22;6518;50.930;5.344;2022-09-23T04:10:07;12.30;73.70
12901;DHT22;6518;50.930;5.344;2022-09-23T04:12:35;12.30;73.60
12901;DHT22;6518;50.930;5.344;2022-09-23T04:15:02;12.20;73.40
12901;DHT22;6518;50.930;5.344;2022-09-23T04:17:29;12.20;73.50
12901;DHT22;6518;50.930;5.344;2022-09-23T04:19:56;12.20;73.50
12901;DHT22;6518;50.930;5.344;2022-09-23T04:22:22;12.20;73.60
12901;DHT22;6518;50.930;5.344;2022-09-23T04:24:50;12.20;73.70
12901;DHT22;6518;50.930;5.344;2022-09-23T04:27:17;12.20;73.60
12901;DHT22;6518;50.930;5.344;2022-09-23T04:29:44;12.20;73.80
12901;DHT22;6518;50.930;5.344;2022-09-23T04:32:11;12.20;73.90
12901;DHT22;6518;50.930;5.344;2022-09-23T04:34:38;12.20;74.00
12901;DHT22;6518;50.930;5.344;2022-09-23T04:37:05;12.20;74.00
12901;DHT22;6518;50.930;5.344;2022-09-23T04:39:32;12.10;74.20
12901;DHT22;6518;50.930;5.344;2022-09-23T04:42:00;12.20;74.30
12901;DHT22;6518;50.930;5.344;2022-09-23T04:44:28;12.20;74.30
12901;DHT22;6518;50.930;5.344;2022-09-23T04:46:55;12.20;74.30
12901;DHT22;6518;50.930;5.344;2022-09-23T04:49:22;12.10;74.30
12901;DHT22;6518;50.930;5.344;2022-09-23T04:51:49;12.10;74.40
12901;DHT22;6518;50.930;5.344;2022-09-23T04:54:15;12.10;74.40
12901;DHT22;6518;50.930;5.344;2022-09-23T04:56:42;12.10;74.50
12901;DHT22;6518;50.930;5.344;2022-09-23T04:59:11;12.10;74.50
12901;DHT22;6518;50.930;5.344;2022-09-23T05:01:37;12.10;74.70
12901;DHT22;6518;50.930;5.344;2022-09-23T05:04:08;12.10;74.70
12901;DHT22;6518;50.930;5.344;2022-09-23T05:06:37;12.10;74.80
12901;DHT22;6518;50.930;5.344;2022-09-23T05:09:06;12.10;74.80
12901;DHT22;6518;50.930;5.344;2022-09-23T05:11:33;12.10;74.90
12901;DHT22;6518;50.930;5.344;2022-09-23T05:14:00;12.10;74.80
12901;DHT22;6518;50.930;5.344;2022-09-23T05:16:28;12.10;74.70
12901;DHT22;6518;50.930;5.344;2022-09-23T05:18:56;12.10;74.80
12901;DHT22;6518;50.930;5.344;2022-09-23T05:21:24;12.10;74.90
12901;DHT22;6518;50.930;5.344;2022-09-23T05:23:52;12.10;74.90
12901;DHT22;6518;50.930;5.344;2022-09-23T05:26:20;12.10;74.90
12901;DHT22;6518;50.930;5.344;2022-09-23T05:28:47;12.00;74.80
12901;DHT22;6518;50.930;5.344;2022-09-23T05:31:16;12.00;74.90
12901;DHT22;6518;50.930;5.344;2022-09-23T05:33:46;12.00;75.00
12901;DHT22;6518;50.930;5.344;2022-09-23T05:36:14;12.00;75.10
12901;DHT22;6518;50.930;5.344;2022-09-23T05:38:42;12.00;75.10
12901;DHT22;6518;50.930;5.344;2022-09-23T05:41:11;12.00;75.10
12901;DHT22;6518;50.930;5.344;2022-09-23T05:43:39;12.00;75.10
12901;DHT22;6518;50.930;5.344;2022-09-23T05:46:09;12.00;75.00
12901;DHT22;6518;50.930;5.344;2022-09-23T05:48:37;12.00;75.10
12901;DHT22;6518;50.930;5.344;2022-09-23T05:51:07;12.00;75.10
12901;DHT22;6518;50.930;5.344;2022-09-23T05:53:34;12.00;75.20
12901;DHT22;6518;50.930;5.344;2022-09-23T05:56:03;12.00;75.20
12901;DHT22;6518;50.930;5.344;2022-09-23T05:58:30;12.10;75.20
12901;DHT22;6518;50.930;5.344;2022-09-23T06:00:57;12.10;75.10
12901;DHT22;6518;50.930;5.344;2022-09-23T06:03:24;12.10;75.10
12901;DHT22;6518;50.930;5.344;2022-09-23T06:05:52;12.10;75.20
12901;DHT22;6518;50.930;5.344;2022-09-23T06:08:21;12.10;75.20
12901;DHT22;6518;50.930;5.344;2022-09-23T06:10:48;12.30;75.30
12901;DHT22;6518;50.930;5.344;2022-09-23T06:13:15;12.10;75.20
12901;DHT22;6518;50.930;5.344;2022-09-23T06:15:42;12.10;75.10
12901;DHT22;6518;50.930;5.344;2022-09-23T06:18:10;12.30;75.30
12901;DHT22;6518;50.930;5.344;2022-09-23T06:20:37;12.20;75.10
12901;DHT22;6518;50.930;5.344;2022-09-23T06:23:07;12.30;75.20
12901;DHT22;6518;50.930;5.344;2022-09-23T06:25:36;12.30;75.20
12901;DHT22;6518;50.930;5.344;2022-09-23T06:28:04;12.30;75.80
12901;DHT22;6518;50.930;5.344;2022-09-23T06:30:31;12.40;74.90
12901;DHT22;6518;50.930;5.344;2022-09-23T06:32:59;12.40;74.70
12901;DHT22;6518;50.930;5.344;2022-09-23T06:35:26;12.40;74.50
12901;DHT22;6518;50.930;5.344;2022-09-23T06:37:54;12.40;74.60
12901;DHT22;6518;50.930;5.344;2022-09-23T06:40:22;12.50;74.50
12901;DHT22;6518;50.930;5.344;2022-09-23T06:42:57;12.50;74.40
12901;DHT22;6518;50.930;5.344;2022-09-23T06:45:24;12.60;74.30
12901;DHT22;6518;50.930;5.344;2022-09-23T06:47:53;12.60;74.00
12901;DHT22;6518;50.930;5.344;2022-09-23T06:50:22;12.60;74.00
12901;DHT22;6518;50.930;5.344;2022-09-23T06:52:50;12.70;74.00
12901;DHT22;6518;50.930;5.344;2022-09-23T06:55:19;12.70;73.80
12901;DHT22;6518;50.930;5.344;2022-09-23T06:57:46;12.70;73.70
12901;DHT22;6518;50.930;5.344;2022-09-23T07:00:15;12.80;73.70
12901;DHT22;6518;50.930;5.344;2022-09-23T07:02:42;12.90;73.70
12901;DHT22;6518;50.930;5.344;2022-09-23T07:05:09;12.90;73.60
12901;DHT22;6518;50.930;5.344;2022-09-23T07:07:36;12.90;73.30
12901;DHT22;6518;50.930;5.344;2022-09-23T07:10:05;13.00;73.30
12901;DHT22;6518;50.930;5.344;2022-09-23T07:12:32;13.00;73.60
12901;DHT22;6518;50.930;5.344;2022-09-23T07:14:59;13.10;73.30
12901;DHT22;6518;50.930;5.344;2022-09-23T07:17:27;13.10;73.10
12901;DHT22;6518;50.930;5.344;2022-09-23T07:19:54;13.20;72.90
12901;DHT22;6518;50.930;5.344;2022-09-23T07:22:23;13.20;72.60
12901;DHT22;6518;50.930;5.344;2022-09-23T07:24:51;13.30;72.50
12901;DHT22;6518;50.930;5.344;2022-09-23T07:27:22;13.40;72.10
12901;DHT22;6518;50.930;5.344;2022-09-23T07:29:49;13.40;71.90
12901;DHT22;6518;50.930;5.344;2022-09-23T07:32:16;13.50;71.90
12901;DHT22;6518;50.930;5.344;2022-09-23T07:34:45;13.60;71.80
12901;DHT22;6518;50.930;5.344;2022-09-23T07:37:12;13.70;71.60
12901;DHT22;6518;50.930;5.344;2022-09-23T07:39:39;13.70;71.40
12901;DHT22;6518;50.930;5.344;2022-09-23T07:42:07;13.80;71.30
12901;DHT22;6518;50.930;5.344;2022-09-23T07:44:34;13.90;71.20
12901;DHT22;6518;50.930;5.344;2022-09-23T07:47:01;13.90;71.10
12901;DHT22;6518;50.930;5.344;2022-09-23T07:49:28;14.00;70.90
12901;DHT22;6518;50.930;5.344;2022-09-23T07:51:56;14.10;70.80
12901;DHT22;6518;50.930;5.344;2022-09-23T07:54:23;14.10;70.50
12901;DHT22;6518;50.930;5.344;2022-09-23T07:56:54;14.20;70.30
12901;DHT22;6518;50.930;5.344;2022-09-23T07:59:21;14.30;70.30
12901;DHT22;6518;50.930;5.344;2022-09-23T08:01:49;14.30;70.10
12901;DHT22;6518;50.930;5.344;2022-09-23T08:04:19;14.40;70.00
12901;DHT22;6518;50.930;5.344;2022-09-23T08:06:48;14.40;70.00
12901;DHT22;6518;50.930;5.344;2022-09-23T08:09:17;14.40;69.70
12901;DHT22;6518;50.930;5.344;2022-09-23T08:11:45;14.50;69.70
12901;DHT22;6518;50.930;5.344;2022-09-23T08:14:13;14.50;69.40
12901;DHT22;6518;50.930;5.344;2022-09-23T08:16:42;14.50;69.40
12901;DHT22;6518;50.930;5.344;2022-09-23T08:19:10;14.50;69.40
12901;DHT22;6518;50.930;5.344;2022-09-23T08:21:37;14.60;69.30
12901;DHT22;6518;50.930;5.344;2022-09-23T08:24:06;14.60;69.40
12901;DHT22;6518;50.930;5.344;2022-09-23T08:26:34;14.70;69.10
12901;DHT22;6518;50.930;5.344;2022-09-23T08:29:02;14.70;69.00
12901;DHT22;6518;50.930;5.344;2022-09-23T08:31:29;14.80;69.10
12901;DHT22;6518;50.930;5.344;2022-09-23T08:33:57;14.80;69.10
12901;DHT22;6518;50.930;5.344;2022-09-23T08:36:24;14.80;69.00
12901;DHT22;6518;50.930;5.344;2022-09-23T08:38:51;14.90;69.00
12901;DHT22;6518;50.930;5.344;2022-09-23T08:41:26;14.90;69.00
12901;DHT22;6518;50.930;5.344;2022-09-23T08:43:58;14.90;69.00
12901;DHT22;6518;50.930;5.344;2022-09-23T08:46:31;15.00;68.90
12901;DHT22;6518;50.930;5.344;2022-09-23T08:49:01;15.00;68.90
12901;DHT22;6518;50.930;5.344;2022-09-23T08:51:34;15.10;68.80
12901;DHT22;6518;50.930;5.344;2022-09-23T08:54:02;15.10;68.80
12901;DHT22;6518;50.930;5.344;2022-09-23T08:56:29;15.20;68.70
12901;DHT22;6518;50.930;5.344;2022-09-23T08:59:04;15.20;68.60
12901;DHT22;6518;50.930;5.344;2022-09-23T09:01:40;15.30;68.40
12901;DHT22;6518;50.930;5.344;2022-09-23T09:04:15;15.30;68.30
12901;DHT22;6518;50.930;5.344;2022-09-23T09:06:45;15.40;68.10
12901;DHT22;6518;50.930;5.344;2022-09-23T09:09:20;15.40;68.00
12901;DHT22;6518;50.930;5.344;2022-09-23T09:11:51;15.50;68.00
12901;DHT22;6518;50.930;5.344;2022-09-23T09:14:24;15.60;67.90
12901;DHT22;6518;50.930;5.344;2022-09-23T09:16:56;15.60;67.70
12901;DHT22;6518;50.930;5.344;2022-09-23T09:19:37;15.60;67.60
12901;DHT22;6518;50.930;5.344;2022-09-23T09:22:14;15.70;67.50
12901;DHT22;6518;50.930;5.344;2022-09-23T09:24:46;15.80;67.30
12901;DHT22;6518;50.930;5.344;2022-09-23T09:27:14;15.80;67.00
12901;DHT22;6518;50.930;5.344;2022-09-23T09:29:45;15.80;66.90
12901;DHT22;6518;50.930;5.344;2022-09-23T09:32:20;15.90;66.80
12901;DHT22;6518;50.930;5.344;2022-09-23T09:34:51;16.00;66.80
12901;DHT22;6518;50.930;5.344;2022-09-23T09:37:23;16.10;66.70
12901;DHT22;6518;50.930;5.344;2022-09-23T09:39:51;16.10;66.50
12901;DHT22;6518;50.930;5.344;2022-09-23T09:42:21;16.20;66.40
12901;DHT22;6518;50.930;5.344;2022-09-23T09:44:54;16.30;66.30
12901;DHT22;6518;50.930;5.344;2022-09-23T09:47:29;16.30;66.10
12901;DHT22;6518;50.930;5.344;2022-09-23T09:50:03;16.40;66.00
12901;DHT22;6518;50.930;5.344;2022-09-23T09:52:31;16.50;65.80
12901;DHT22;6518;50.930;5.344;2022-09-23T09:55:22;16.50;65.50
12901;DHT22;6518;50.930;5.344;2022-09-23T09:57:54;16.50;65.30
12901;DHT22;6518;50.930;5.344;2022-09-23T10:00:39;16.70;65.50
12901;DHT22;6518;50.930;5.344;2022-09-23T10:03:36;16.80;65.30
12901;DHT22;6518;50.930;5.344;2022-09-23T10:06:14;16.90;64.80
12901;DHT22;6518;50.930;5.344;2022-09-23T10:08:47;17.00;64.50
12901;DHT22;6518;50.930;5.344;2022-09-23T10:11:15;17.10;64.10
12901;DHT22;6518;50.930;5.344;2022-09-23T10:14:00;17.20;64.00
12901;DHT22;6518;50.930;5.344;2022-09-23T10:16:31;17.20;63.50
12901;DHT22;6518;50.930;5.344;2022-09-23T10:18:59;17.30;63.60
12901;DHT22;6518;50.930;5.344;2022-09-23T10:21:31;17.40;63.30
12901;DHT22;6518;50.930;5.344;2022-09-23T10:24:02;17.40;62.80
12901;DHT22;6518;50.930;5.344;2022-09-23T10:26:31;17.50;62.50
12901;DHT22;6518;50.930;5.344;2022-09-23T10:29:01;17.50;62.40
12901;DHT22;6518;50.930;5.344;2022-09-23T10:31:32;17.50;62.30
12901;DHT22;6518;50.930;5.344;2022-09-23T10:34:01;17.60;62.10
12901;DHT22;6518;50.930;5.344;2022-09-23T10:36:30;17.60;62.00
12901;DHT22;6518;50.930;5.344;2022-09-23T10:38:58;17.60;61.50
12901;DHT22;6518;50.930;5.344;2022-09-23T10:41:45;17.70;61.10
12901;DHT22;6518;50.930;5.344;2022-09-23T10:44:35;17.70;60.80
12901;DHT22;6518;50.930;5.344;2022-09-23T10:47:32;17.70;60.90
12901;DHT22;6518;50.930;5.344;2022-09-23T10:50:09;17.70;60.80
12901;DHT22;6518;50.930;5.344;2022-09-23T10:52:46;17.80;60.60
12901;DHT22;6518;50.930;5.344;2022-09-23T10:58:33;17.80;60.40
12901;DHT22;6518;50.930;5.344;2022-09-23T11:01:14;17.90;60.60
12901;DHT22;6518;50.930;5.344;2022-09-23T11:04:08;17.90;60.20
12901;DHT22;6518;50.930;5.344;2022-09-23T11:06:50;17.90;60.10
12901;DHT22;6518;50.930;5.344;2022-09-23T11:09:29;17.90;59.80
12901;DHT22;6518;50.930;5.344;2022-09-23T11:12:07;17.90;59.60
12901;DHT22;6518;50.930;5.344;2022-09-23T11:14:46;17.90;59.50
12901;DHT22;6518;50.930;5.344;2022-09-23T11:20:41;18.00;59.50
12901;DHT22;6518;50.930;5.344;2022-09-23T11:26:14;18.00;59.30
12901;DHT22;6518;50.930;5.344;2022-09-23T11:29:05;18.10;59.40
12901;DHT22;6518;50.930;5.344;2022-09-23T11:31:42;18.10;59.30
12901;DHT22;6518;50.930;5.344;2022-09-23T11:34:29;18.20;59.40
12901;DHT22;6518;50.930;5.344;2022-09-23T11:37:03;18.20;59.20
12901;DHT22;6518;50.930;5.344;2022-09-23T11:39:35;18.20;59.20
12901;DHT22;6518;50.930;5.344;2022-09-23T11:42:05;18.20;59.10
12901;DHT22;6518;50.930;5.344;2022-09-23T11:44:40;18.20;59.10
12901;DHT22;6518;50.930;5.344;2022-09-23T11:47:10;18.20;59.20
12901;DHT22;6518;50.930;5.344;2022-09-23T11:49:46;18.20;59.20
12901;DHT22;6518;50.930;5.344;2022-09-23T11:52:21;18.30;59.30
12901;DHT22;6518;50.930;5.344;2022-09-23T11:54:53;18.30;59.30
12901;DHT22;6518;50.930;5.344;2022-09-23T11:57:26;18.40;59.40
12901;DHT22;6518;50.930;5.344;2022-09-23T11:59:59;18.40;59.30
12901;DHT22;6518;50.930;5.344;2022-09-23T12:02:32;18.40;59.20
12901;DHT22;6518;50.930;5.344;2022-09-23T12:05:08;18.50;59.30
12901;DHT22;6518;50.930;5.344;2022-09-23T12:07:46;18.50;59.20
12901;DHT22;6518;50.930;5.344;2022-09-23T12:10:17;18.60;59.10
12901;DHT22;6518;50.930;5.344;2022-09-23T12:12:52;18.60;59.10
12901;DHT22;6518;50.930;5.344;2022-09-23T12:15:33;18.60;59.10
12901;DHT22;6518;50.930;5.344;2022-09-23T12:18:40;18.60;58.80
12901;DHT22;6518;50.930;5.344;2022-09-23T12:21:37;18.60;58.80
12901;DHT22;6518;50.930;5.344;2022-09-23T12:24:42;18.60;58.90
12901;DHT22;6518;50.930;5.344;2022-09-23T12:27:16;18.70;59.00
12901;DHT22;6518;50.930;5.344;2022-09-23T12:29:52;18.60;58.80
12901;DHT22;6518;50.930;5.344;2022-09-23T12:32:20;18.70;59.00
12901;DHT22;6518;50.930;5.344;2022-09-23T12:34:50;18.60;59.00
12901;DHT22;6518;50.930;5.344;2022-09-23T12:37:27;18.70;59.10
12901;DHT22;6518;50.930;5.344;2022-09-23T12:40:00;18.70;59.10
12901;DHT22;6518;50.930;5.344;2022-09-23T12:42:27;18.70;59.10
12901;DHT22;6518;50.930;5.344;2022-09-23T12:45:15;18.80;59.10
12901;DHT22;6518;50.930;5.344;2022-09-23T12:47:43;18.80;59.10
12901;DHT22;6518;50.930;5.344;2022-09-23T12:56:23;18.80;58.80
12901;DHT22;6518;50.930;5.344;2022-09-23T12:59:09;18.80;58.70
12901;DHT22;6518;50.930;5.344;2022-09-23T13:01:38;18.80;58.70
12901;DHT22;6518;50.930;5.344;2022-09-23T13:04:30;18.80;58.80
12901;DHT22;6518;50.930;5.344;2022-09-23T13:07:16;18.80;58.70
12901;DHT22;6518;50.930;5.344;2022-09-23T13:09:47;18.80;58.70
12901;DHT22;6518;50.930;5.344;2022-09-23T13:12:20;18.70;58.70
12901;DHT22;6518;50.930;5.344;2022-09-23T13:14:51;18.70;58.80
12901;DHT22;6518;50.930;5.344;2022-09-23T13:17:24;18.70;58.90
12901;DHT22;6518;50.930;5.344;2022-09-23T13:20:00;18.70;59.10
12901;DHT22;6518;50.930;5.344;2022-09-23T13:23:03;18.60;59.00
12901;DHT22;6518;50.930;5.344;2022-09-23T13:25:38;18.60;59.30
12901;DHT22;6518;50.930;5.344;2022-09-23T13:28:20;18.60;59.30
12901;DHT22;6518;50.930;5.344;2022-09-23T13:30:49;18.60;59.40
12901;DHT22;6518;50.930;5.344;2022-09-23T13:33:23;18.60;59.50
12901;DHT22;6518;50.930;5.344;2022-09-23T13:35:55;18.60;59.50
12901;DHT22;6518;50.930;5.344;2022-09-23T13:38:26;18.60;59.60
12901;DHT22;6518;50.930;5.344;2022-09-23T13:40:56;18.60;59.60
12901;DHT22;6518;50.930;5.344;2022-09-23T13:43:27;18.60;59.70
12901;DHT22;6518;50.930;5.344;2022-09-23T13:45:58;18.70;59.80
12901;DHT22;6518;50.930;5.344;2022-09-23T13:48:26;18.70;59.90
12901;DHT22;6518;50.930;5.344;2022-09-23T13:50:54;18.70;59.90
12901;DHT22;6518;50.930;5.344;2022-09-23T13:53:23;18.70;59.90
12901;DHT22;6518;50.930;5.344;2022-09-23T13:56:00;18.80;59.90
12901;DHT22;6518;50.930;5.344;2022-09-23T13:58:30;18.80;60.00
12901;DHT22;6518;50.930;5.344;2022-09-23T14:00:57;18.80;59.90
12901;DHT22;6518;50.930;5.344;2022-09-23T14:03:27;18.80;59.90
12901;DHT22;6518;50.930;5.344;2022-09-23T14:05:57;18.80;59.90
12901;DHT22;6518;50.930;5.344;2022-09-23T14:08:25;18.80;60.00
12901;DHT22;6518;50.930;5.344;2022-09-23T14:10:53;18.80;60.20
12901;DHT22;6518;50.930;5.344;2022-09-23T14:13:23;18.80;60.30
12901;DHT22;6518;50.930;5.344;2022-09-23T14:15:54;18.90;60.30
12901;DHT22;6518;50.930;5.344;2022-09-23T14:18:29;18.90;60.20
12901;DHT22;6518;50.930;5.344;2022-09-23T14:20:57;18.90;60.30
12901;DHT22;6518;50.930;5.344;2022-09-23T14:23:24;18.90;60.30
12901;DHT22;6518;50.930;5.344;2022-09-23T14:25:52;18.90;60.40
12901;DHT22;6518;50.930;5.344;2022-09-23T14:28:21;19.00;60.40
12901;DHT22;6518;50.930;5.344;2022-09-23T14:30:50;19.00;60.50
12901;DHT22;6518;50.930;5.344;2022-09-23T14:33:24;18.90;60.50
12901;DHT22;6518;50.930;5.344;2022-09-23T14:35:53;18.90;60.70
12901;DHT22;6518;50.930;5.344;2022-09-23T14:38:24;19.00;60.80
12901;DHT22;6518;50.930;5.344;2022-09-23T14:41:18;19.00;60.80
12901;DHT22;6518;50.930;5.344;2022-09-23T14:43:49;19.00;60.70
12901;DHT22;6518;50.930;5.344;2022-09-23T14:46:18;19.10;60.90
12901;DHT22;6518;50.930;5.344;2022-09-23T14:49:02;19.10;60.80
12901;DHT22;6518;50.930;5.344;2022-09-23T14:51:46;19.10;60.90
12901;DHT22;6518;50.930;5.344;2022-09-23T14:54:31;19.00;60.70
12901;DHT22;6518;50.930;5.344;2022-09-23T14:57:01;19.00;60.70
12901;DHT22;6518;50.930;5.344;2022-09-23T14:59:33;19.00;61.10
12901;DHT22;6518;50.930;5.344;2022-09-23T15:02:00;19.00;61.00
12901;DHT22;6518;50.930;5.344;2022-09-23T15:04:30;19.00;61.00
12901;DHT22;6518;50.930;5.344;2022-09-23T15:07:06;19.00;61.00
12901;DHT22;6518;50.930;5.344;2022-09-23T15:09:37;19.00;61.30
12901;DHT22;6518;50.930;5.344;2022-09-23T15:12:06;19.00;61.30
12901;DHT22;6518;50.930;5.344;2022-09-23T15:14:39;19.00;61.30
12901;DHT22;6518;50.930;5.344;2022-09-23T15:17:15;19.00;61.30
12901;DHT22;6518;50.930;5.344;2022-09-23T15:19:45;19.00;61.30
12901;DHT22;6518;50.930;5.344;2022-09-23T15:22:17;18.90;61.50
12901;DHT22;6518;50.930;5.344;2022-09-23T15:24:44;19.00;61.60
12901;DHT22;6518;50.930;5.344;2022-09-23T15:27:29;18.90;61.70
12901;DHT22;6518;50.930;5.344;2022-09-23T15:30:06;18.90;61.90
12901;DHT22;6518;50.930;5.344;2022-09-23T15:32:37;18.80;61.90
12901;DHT22;6518;50.930;5.344;2022-09-23T15:35:10;18.80;62.00
12901;DHT22;6518;50.930;5.344;2022-09-23T15:37:38;18.80;62.20
12901;DHT22;6518;50.930;5.344;2022-09-23T15:40:08;18.80;62.40
12901;DHT22;6518;50.930;5.344;2022-09-23T15:42:36;18.80;62.50
12901;DHT22;6518;50.930;5.344;2022-09-23T15:45:06;18.80;62.60
12901;DHT22;6518;50.930;5.344;2022-09-23T15:47:33;18.70;62.60
12901;DHT22;6518;50.930;5.344;2022-09-23T15:50:01;18.70;62.90
12901;DHT22;6518;50.930;5.344;2022-09-23T15:52:29;18.70;63.00
12901;DHT22;6518;50.930;5.344;2022-09-23T15:54:56;18.70;63.00
12901;DHT22;6518;50.930;5.344;2022-09-23T15:57:23;18.70;63.10
12901;DHT22;6518;50.930;5.344;2022-09-23T15:59:50;18.60;63.10
12901;DHT22;6518;50.930;5.344;2022-09-23T16:02:20;18.60;63.30
12901;DHT22;6518;50.930;5.344;2022-09-23T16:04:49;18.60;63.30
12901;DHT22;6518;50.930;5.344;2022-09-23T16:07:16;18.60;63.40
12901;DHT22;6518;50.930;5.344;2022-09-23T16:09:45;18.60;63.60
12901;DHT22;6518;50.930;5.344;2022-09-23T16:12:12;18.60;63.70
12901;DHT22;6518;50.930;5.344;2022-09-23T16:14:40;18.60;63.90
12901;DHT22;6518;50.930;5.344;2022-09-23T16:17:08;18.60;64.00
12901;DHT22;6518;50.930;5.344;2022-09-23T16:19:37;18.50;64.00
12901;DHT22;6518;50.930;5.344;2022-09-23T16:22:04;18.50;64.10
12901;DHT22;6518;50.930;5.344;2022-09-23T16:24:31;18.50;64.40
12901;DHT22;6518;50.930;5.344;2022-09-23T16:27:00;18.40;64.50
12901;DHT22;6518;50.930;5.344;2022-09-23T16:29:30;18.40;64.70
12901;DHT22;6518;50.930;5.344;2022-09-23T16:31:57;18.40;64.80